createdAt,value
2022-08-16T00:01:40.698Z,0.28
2022-08-16T00:04:07.683Z,0.20
2022-08-16T00:06:36.512Z,0.10
2022-08-16T00:09:05.780Z,0.30
2022-08-16T00:11:32.216Z,0.47
2022-08-16T00:13:59.162Z,0.28
2022-08-16T00:17:05.423Z,0.20
2022-08-16T00:19:15.674Z,0.20
2022-08-16T00:21:42.669Z,0.17
2022-08-16T00:24:12.260Z,0.50
2022-08-16T00:26:43.721Z,1.20
2022-08-16T00:29:11.025Z,0.80
2022-08-16T00:31:59.577Z,1.05
2022-08-16T00:34:43.869Z,1.38
2022-08-16T00:37:10.362Z,1.10
2022-08-16T00:39:36.900Z,0.70
2022-08-16T00:42:05.463Z,0.65
2022-08-16T00:44:37.422Z,0.50
2022-08-16T00:47:08.528Z,0.40
2022-08-16T00:49:39.196Z,0.57
2022-08-16T00:52:29.578Z,0.90
2022-08-16T00:54:56.556Z,0.75
2022-08-16T00:57:24.066Z,0.82
2022-08-16T00:59:58.694Z,1.00
2022-08-16T01:02:31.169Z,0.90
2022-08-16T01:05:11.065Z,0.68
2022-08-16T01:07:51.901Z,0.85
2022-08-16T01:10:32.137Z,1.10
2022-08-16T01:13:02.445Z,0.90
2022-08-16T01:15:32.449Z,0.90
2022-08-16T01:17:59.846Z,1.58
2022-08-16T01:20:30.386Z,1.45
2022-08-16T01:23:58.214Z,1.42
2022-08-16T01:26:34.261Z,0.90
2022-08-16T01:29:04.738Z,0.70
2022-08-16T01:31:31.339Z,0.80
2022-08-16T01:33:57.694Z,1.00
2022-08-16T01:36:26.592Z,0.80
2022-08-16T01:38:57.056Z,0.70
2022-08-16T01:41:30.621Z,0.50
2022-08-16T01:44:00.931Z,0.45
2022-08-16T01:46:39.204Z,0.50
2022-08-16T01:49:45.711Z,0.70
2022-08-16T01:52:29.549Z,0.70
2022-08-16T01:57:22.991Z,1.20
2022-08-16T01:59:54.787Z,0.70
2022-08-16T02:02:27.395Z,0.50
2022-08-16T02:04:55.320Z,0.50
2022-08-16T02:07:23.746Z,0.70
2022-08-16T02:09:56.872Z,0.65
2022-08-16T02:12:43.557Z,0.40
2022-08-16T02:15:11.985Z,0.50
2022-08-16T02:17:38.597Z,0.50
2022-08-16T02:20:11.578Z,0.50
2022-08-16T02:22:38.758Z,0.70
2022-08-16T02:25:08.367Z,0.70
2022-08-16T02:27:36.176Z,0.70
2022-08-16T02:30:05.889Z,1.10
2022-08-16T02:32:51.028Z,0.80
2022-08-16T02:35:18.678Z,0.82
2022-08-16T02:37:52.316Z,0.90
2022-08-16T02:40:20.137Z,0.90
2022-08-16T02:42:50.055Z,0.90
2022-08-16T02:45:17.585Z,0.52
2022-08-16T02:48:00.157Z,0.55
2022-08-16T02:50:55.374Z,0.35
2022-08-16T02:53:14.804Z,0.32
2022-08-16T02:55:44.477Z,0.50
2022-08-16T02:58:11.542Z,0.30
2022-08-16T03:00:40.639Z,0.20
2022-08-16T03:03:11.939Z,0.25
2022-08-16T03:05:44.342Z,0.20
2022-08-16T03:08:50.304Z,0.20
2022-08-16T03:11:03.770Z,0.20
2022-08-16T03:13:30.273Z,0.22
2022-08-16T03:16:06.745Z,0.47
2022-08-16T03:18:53.678Z,0.40
2022-08-16T03:21:20.350Z,0.55
2022-08-16T03:23:49.767Z,0.32
2022-08-16T03:26:18.011Z,0.30
2022-08-16T03:28:44.532Z,0.75
2022-08-16T03:31:13.331Z,0.40
2022-08-16T03:33:41.393Z,0.35
2022-08-16T03:36:30.446Z,0.20
2022-08-16T03:38:55.845Z,0.40
2022-08-16T03:41:25.220Z,0.28
2022-08-16T03:43:54.577Z,0.22
2022-08-16T03:46:48.268Z,0.20
2022-08-16T03:49:11.482Z,0.20
2022-08-16T03:51:39.850Z,0.30
2022-08-16T03:54:12.282Z,0.60
2022-08-16T03:59:05.416Z,0.85
2022-08-16T04:01:32.041Z,0.70
2022-08-16T04:03:58.672Z,0.70
2022-08-16T04:06:26.074Z,0.57
2022-08-16T04:08:53.137Z,0.60
2022-08-16T04:11:19.710Z,0.70
2022-08-16T04:14:00.236Z,0.68
2022-08-16T04:16:35.129Z,1.00
2022-08-16T04:19:04.328Z,0.70
2022-08-16T04:21:35.464Z,0.80
2022-08-16T04:24:02.885Z,0.80
2022-08-16T04:26:31.130Z,1.27
2022-08-16T04:29:14.933Z,1.80
2022-08-16T04:31:47.008Z,2.42
2022-08-16T04:34:24.949Z,2.25
2022-08-16T04:36:52.806Z,2.20
2022-08-16T04:39:19.959Z,2.50
2022-08-16T04:41:57.095Z,2.40
2022-08-16T04:44:32.561Z,2.10
2022-08-16T04:47:21.250Z,1.55
2022-08-16T04:49:48.317Z,1.23
2022-08-16T04:52:35.166Z,1.27
2022-08-16T04:55:01.169Z,1.27
2022-08-16T04:57:30.455Z,1.50
2022-08-16T04:59:57.012Z,1.10
2022-08-16T05:02:42.183Z,1.45
2022-08-16T05:05:17.638Z,2.28
2022-08-16T05:07:59.493Z,2.35
2022-08-16T05:12:52.792Z,1.77
2022-08-16T05:15:19.334Z,1.58
2022-08-16T05:17:46.850Z,1.58
2022-08-16T05:20:38.672Z,1.33
2022-08-16T05:22:59.648Z,1.35
2022-08-16T05:25:40.868Z,1.10
2022-08-16T05:28:13.712Z,1.92
2022-08-16T05:30:40.061Z,1.67
2022-08-16T05:33:16.758Z,1.50
2022-08-16T05:35:44.680Z,1.83
2022-08-16T05:38:31.020Z,2.10
2022-08-16T05:41:05.683Z,2.30
2022-08-16T05:43:46.493Z,2.42
2022-08-16T05:46:30.322Z,2.17
2022-08-16T05:49:03.148Z,1.67
2022-08-16T05:51:38.922Z,1.40
2022-08-16T05:54:07.567Z,1.48
2022-08-16T05:56:34.209Z,1.60
2022-08-16T05:59:06.267Z,1.80
2022-08-16T06:01:37.842Z,1.40
2022-08-16T06:04:05.483Z,1.80
2022-08-16T06:06:41.074Z,1.17
2022-08-16T06:09:10.917Z,1.50
2022-08-16T06:11:37.723Z,1.50
2022-08-16T06:14:04.787Z,1.80
2022-08-16T06:16:31.972Z,1.73
2022-08-16T06:18:59.227Z,2.00
2022-08-16T06:21:36.741Z,2.15
2022-08-16T06:24:03.657Z,2.50
2022-08-16T06:26:57.784Z,2.20
2022-08-16T06:29:25.011Z,1.90
2022-08-16T06:31:51.766Z,1.67
2022-08-16T06:34:55.265Z,2.00
2022-08-16T06:37:05.104Z,1.80
2022-08-16T06:39:34.332Z,2.03
2022-08-16T06:42:01.217Z,2.33
2022-08-16T06:44:27.600Z,2.80
2022-08-16T06:46:54.106Z,2.50
2022-08-16T06:49:20.473Z,2.65
2022-08-16T06:51:48.996Z,2.28
2022-08-16T06:54:16.059Z,2.22
2022-08-16T06:56:42.593Z,1.95
2022-08-16T06:59:10.292Z,2.20
2022-08-16T07:01:45.130Z,2.30
2022-08-16T07:04:31.739Z,1.60
2022-08-16T07:07:00.028Z,2.95
2022-08-16T07:09:29.819Z,2.78
2022-08-16T07:12:03.632Z,2.10
2022-08-16T07:14:32.798Z,1.80
2022-08-16T07:16:59.506Z,2.20
2022-08-16T07:20:01.661Z,2.13
2022-08-16T07:22:52.842Z,2.38
2022-08-16T07:25:00.142Z,2.30
2022-08-16T07:27:26.790Z,2.75
2022-08-16T07:29:55.669Z,2.63
2022-08-16T07:32:29.460Z,3.00
2022-08-16T07:34:57.937Z,2.40
2022-08-16T07:37:24.492Z,2.00
2022-08-16T07:39:51.547Z,2.70
2022-08-16T07:42:25.919Z,2.65
2022-08-16T07:45:01.284Z,2.28
2022-08-16T07:47:31.257Z,1.83
2022-08-16T07:49:58.553Z,2.15
2022-08-16T07:52:30.028Z,2.40
2022-08-16T07:57:24.096Z,2.63
2022-08-16T07:59:50.828Z,2.92
2022-08-16T08:02:20.377Z,1.95
2022-08-16T08:04:47.663Z,1.40
2022-08-16T08:07:14.534Z,1.48
2022-08-16T08:09:43.456Z,2.00
2022-08-16T08:12:10.273Z,1.10
2022-08-16T08:14:56.802Z,0.90
2022-08-16T08:17:23.132Z,1.40
2022-08-16T08:19:53.299Z,1.40
2022-08-16T08:22:22.108Z,1.50
2022-08-16T08:24:48.955Z,1.90
2022-08-16T08:27:22.760Z,1.50
2022-08-16T08:30:49.721Z,1.90
2022-08-16T08:32:58.775Z,2.47
2022-08-16T08:35:24.482Z,1.95
2022-08-16T08:37:55.816Z,2.28
2022-08-16T08:40:24.609Z,1.73
2022-08-16T08:42:57.644Z,1.20
2022-08-16T08:45:46.662Z,1.02
2022-08-16T08:48:34.112Z,2.00
2022-08-16T08:50:59.518Z,1.60
2022-08-16T08:53:30.401Z,1.27
2022-08-16T08:55:58.907Z,1.70
2022-08-16T08:58:26.044Z,2.33
2022-08-16T09:01:01.794Z,2.08
2022-08-16T09:03:28.981Z,1.67
2022-08-16T09:05:59.204Z,1.30
2022-08-16T09:08:27.467Z,1.25
2022-08-16T09:10:59.232Z,1.63
2022-08-16T09:13:32.730Z,1.70
2022-08-16T09:15:59.484Z,1.70
2022-08-16T09:18:35.963Z,1.17
2022-08-16T09:21:04.175Z,1.17
2022-08-16T09:23:36.288Z,1.70
2022-08-16T09:26:44.607Z,2.13
2022-08-16T09:29:14.882Z,1.30
2022-08-16T09:31:41.175Z,2.00
2022-08-16T09:34:08.350Z,1.50
2022-08-16T09:36:34.681Z,1.30
2022-08-16T09:39:03.404Z,1.50
2022-08-16T09:41:30.176Z,1.40
2022-08-16T09:44:00.346Z,0.80
2022-08-16T09:46:48.138Z,1.20
2022-08-16T09:49:16.637Z,0.80
2022-08-16T09:51:46.450Z,1.30
2022-08-16T09:54:17.068Z,1.00
2022-08-16T09:56:52.096Z,1.10
2022-08-16T09:59:20.967Z,1.42
2022-08-16T10:01:49.780Z,0.90
2022-08-16T10:04:30.232Z,0.80
2022-08-16T10:12:29.991Z,1.20
2022-08-16T10:14:56.366Z,0.60
2022-08-16T10:17:24.353Z,0.70
2022-08-16T10:19:52.044Z,0.70
2022-08-16T10:22:18.600Z,0.80
2022-08-16T10:24:56.082Z,0.70
2022-08-16T10:27:29.001Z,0.88
2022-08-16T10:30:24.996Z,0.70
2022-08-16T10:32:52.005Z,1.25
2022-08-16T10:35:18.957Z,0.60
2022-08-16T10:37:45.310Z,0.60
2022-08-16T10:40:28.664Z,0.52
2022-08-16T10:42:56.634Z,0.28
2022-08-16T10:45:23.366Z,0.40
2022-08-16T10:48:00.463Z,0.20
2022-08-16T10:50:29.644Z,1.20
2022-08-16T10:52:59.323Z,1.30
2022-08-16T10:55:44.310Z,1.30
2022-08-16T10:58:13.080Z,1.88
2022-08-16T11:00:40.780Z,1.40
2022-08-16T11:03:43.134Z,1.48
2022-08-16T11:06:03.229Z,1.00
2022-08-16T11:08:35.624Z,0.95
2022-08-16T11:11:11.476Z,0.50
2022-08-16T11:17:02.128Z,0.40
2022-08-16T11:19:15.450Z,0.30
2022-08-16T11:24:40.124Z,0.70
2022-08-16T11:27:20.328Z,0.50
2022-08-16T11:29:47.830Z,0.40
2022-08-16T11:32:14.354Z,1.40
2022-08-16T11:35:11.176Z,1.13
2022-08-16T11:38:05.752Z,1.20
2022-08-16T11:40:21.042Z,1.60
2022-08-16T11:42:59.006Z,1.08
2022-08-16T11:45:25.433Z,1.30
2022-08-16T11:47:53.117Z,1.20
2022-08-16T11:50:19.544Z,0.90
2022-08-16T11:52:46.683Z,1.30
2022-08-16T11:55:13.462Z,1.00
2022-08-16T11:57:41.156Z,0.85
2022-08-16T12:00:33.679Z,0.80
2022-08-16T12:02:58.016Z,1.00
2022-08-16T12:05:26.109Z,0.40
2022-08-16T12:07:55.169Z,1.30
2022-08-16T12:10:22.324Z,0.80
2022-08-16T12:12:49.406Z,0.90
2022-08-16T12:15:19.220Z,1.00
2022-08-16T12:17:45.921Z,1.33
2022-08-16T12:20:18.777Z,0.80
2022-08-16T12:22:45.939Z,0.80
2022-08-16T12:25:15.237Z,0.90
2022-08-16T12:27:44.565Z,1.30
2022-08-16T12:30:26.302Z,0.80
2022-08-16T12:32:56.449Z,1.00
2022-08-16T12:35:24.654Z,1.10
2022-08-16T12:37:56.604Z,1.63
2022-08-16T12:42:54.168Z,0.77
2022-08-16T12:45:21.812Z,1.50
2022-08-16T12:48:31.427Z,1.10
2022-08-16T12:50:54.298Z,0.60
2022-08-16T12:53:23.782Z,0.80
2022-08-16T12:55:51.062Z,0.80
2022-08-16T12:58:50.521Z,0.50
2022-08-16T13:01:07.031Z,0.98
2022-08-16T13:03:40.062Z,0.90
2022-08-16T13:06:07.323Z,1.02
2022-08-16T13:08:33.735Z,0.90
2022-08-16T13:11:00.580Z,1.13
2022-08-16T13:13:29.588Z,1.08
2022-08-16T13:16:02.233Z,1.20
2022-08-16T13:18:34.658Z,0.80
2022-08-16T13:21:06.396Z,1.00
2022-08-16T13:23:33.121Z,1.00
2022-08-16T13:25:59.811Z,0.70
2022-08-16T13:28:26.386Z,0.80
2022-08-16T13:30:54.366Z,0.65
2022-08-16T13:33:29.552Z,0.85
2022-08-16T13:35:58.110Z,1.10
2022-08-16T13:38:25.824Z,0.70
2022-08-16T13:40:53.801Z,0.80
2022-08-16T13:43:23.379Z,0.68
2022-08-16T13:45:50.449Z,0.50
2022-08-16T13:48:21.809Z,0.90
2022-08-16T13:50:52.901Z,0.75
2022-08-16T13:53:19.439Z,0.80
2022-08-16T13:55:57.635Z,0.50
2022-08-16T13:58:37.209Z,0.90
2022-08-16T14:01:12.262Z,1.10
2022-08-16T14:03:39.720Z,0.93
2022-08-16T14:06:07.355Z,1.33
2022-08-16T14:08:37.517Z,1.00
2022-08-16T14:11:11.737Z,0.70
2022-08-16T14:13:38.934Z,0.50
2022-08-16T14:16:08.209Z,1.42
2022-08-16T14:18:51.186Z,0.90
2022-08-16T14:21:19.493Z,1.08
2022-08-16T14:23:48.612Z,0.55
2022-08-16T14:26:14.998Z,0.70
2022-08-16T14:28:41.358Z,0.90
2022-08-16T14:31:09.363Z,1.00
2022-08-16T14:33:36.073Z,0.70
2022-08-16T14:36:02.446Z,0.82
2022-08-16T14:38:29.671Z,0.80
2022-08-16T14:41:03.941Z,0.40
2022-08-16T14:43:33.477Z,0.30
2022-08-16T14:46:00.992Z,0.70
2022-08-16T14:48:28.307Z,0.77
2022-08-16T14:50:55.581Z,1.30
2022-08-16T14:53:23.427Z,1.42
2022-08-16T14:55:49.794Z,1.10
2022-08-16T14:58:18.804Z,0.60
2022-08-16T15:00:46.451Z,1.40
2022-08-16T15:03:12.914Z,1.60
2022-08-16T15:05:41.875Z,1.33
2022-08-16T15:08:08.781Z,1.40
2022-08-16T15:10:37.329Z,1.30
2022-08-16T15:13:07.110Z,1.17
2022-08-16T15:15:37.275Z,1.30
2022-08-16T15:18:04.613Z,1.25
2022-08-16T15:20:33.278Z,1.67
2022-08-16T15:23:01.329Z,1.88
2022-08-16T15:25:30.338Z,1.77
2022-08-16T15:27:57.563Z,1.40
2022-08-16T15:30:57.949Z,1.48
2022-08-16T15:33:13.110Z,0.90
2022-08-16T15:35:40.128Z,0.75
2022-08-16T15:38:09.155Z,0.82
2022-08-16T15:40:36.373Z,1.00
2022-08-16T15:43:22.698Z,0.50
2022-08-16T15:46:34.633Z,1.13
2022-08-16T15:49:05.601Z,1.20
2022-08-16T15:51:33.483Z,0.50
2022-08-16T15:54:20.901Z,0.90
2022-08-16T15:56:51.498Z,0.90
2022-08-16T16:01:45.377Z,1.20
2022-08-16T16:04:15.053Z,1.42
2022-08-16T16:06:49.270Z,0.70
2022-08-16T16:09:34.723Z,0.50
2022-08-16T16:12:16.223Z,0.30
2022-08-16T16:14:51.010Z,0.80
2022-08-16T16:17:17.524Z,0.75
2022-08-16T16:19:43.967Z,0.50
2022-08-16T16:22:10.763Z,0.60
2022-08-16T16:24:39.789Z,0.75
2022-08-16T16:27:06.512Z,0.77
2022-08-16T16:29:37.134Z,0.45
2022-08-16T16:32:07.687Z,0.20
2022-08-16T16:34:35.520Z,0.70
2022-08-16T16:37:02.606Z,0.40
2022-08-16T16:39:29.127Z,0.90
2022-08-16T16:41:59.313Z,1.38
2022-08-16T16:44:31.976Z,1.30
2022-08-16T16:47:02.818Z,0.90
2022-08-16T16:49:29.225Z,0.93
2022-08-16T16:52:06.652Z,0.90
2022-08-16T16:54:35.599Z,1.33
2022-08-16T16:57:02.284Z,1.10
2022-08-16T16:59:28.854Z,0.93
2022-08-16T17:01:59.683Z,0.45
2022-08-16T17:04:42.675Z,0.65
2022-08-16T17:07:11.141Z,1.05
2022-08-16T17:09:40.639Z,0.60
2022-08-16T17:12:08.355Z,0.50
2022-08-16T17:14:35.307Z,1.00
2022-08-16T17:17:06.638Z,1.20
2022-08-16T17:19:33.549Z,1.13
2022-08-16T17:22:00.410Z,0.90
2022-08-16T17:24:33.142Z,0.40
2022-08-16T17:27:07.481Z,0.20
2022-08-16T17:29:34.563Z,0.45
2022-08-16T17:32:33.925Z,0.43
2022-08-16T17:35:00.384Z,0.57
2022-08-16T17:37:42.244Z,0.50
2022-08-16T17:40:40.440Z,0.70
2022-08-16T17:43:01.297Z,1.20
2022-08-16T17:45:28.002Z,0.98
2022-08-16T17:47:54.416Z,0.90
2022-08-16T17:50:21.203Z,0.70
2022-08-16T17:52:51.771Z,0.70
2022-08-16T17:55:23.840Z,0.50
2022-08-16T17:57:50.420Z,0.88
2022-08-16T18:00:20.380Z,0.70
2022-08-16T18:02:50.161Z,0.63
2022-08-16T18:05:17.390Z,0.35
2022-08-16T18:07:44.201Z,0.40
2022-08-16T18:10:11.221Z,0.30
2022-08-16T18:12:54.352Z,0.20
2022-08-16T18:15:23.483Z,0.10
2022-08-16T18:17:53.091Z,0.20
2022-08-16T18:20:39.349Z,0.30
2022-08-16T18:23:08.430Z,0.20
2022-08-16T18:25:35.663Z,0.20
2022-08-16T18:28:02.473Z,0.17
2022-08-16T18:30:29.222Z,0.20
2022-08-16T18:32:56.368Z,0.20
2022-08-16T18:35:22.964Z,0.10
2022-08-16T18:37:49.578Z,0.10
2022-08-16T18:40:16.330Z,0.10
2022-08-16T18:42:57.144Z,0.00
2022-08-16T18:45:24.182Z,0.13
2022-08-16T18:48:02.111Z,0.10
2022-08-16T18:50:28.524Z,0.20
2022-08-16T18:53:16.031Z,0.30
2022-08-16T18:55:45.394Z,0.40
2022-08-16T18:58:15.359Z,0.40
2022-08-16T19:00:50.560Z,0.70
2022-08-16T19:03:25.625Z,0.75
2022-08-16T19:05:56.248Z,0.80
2022-08-16T19:08:22.854Z,0.60
2022-08-16T19:10:49.814Z,0.80
2022-08-16T19:13:17.909Z,0.68
2022-08-16T19:15:44.957Z,0.60
2022-08-16T19:18:11.856Z,0.45
2022-08-16T19:20:38.345Z,0.35
2022-08-16T19:23:09.898Z,0.35
2022-08-16T19:25:47.463Z,0.30
2022-08-16T19:28:50.950Z,0.20
2022-08-16T19:31:26.313Z,0.15
2022-08-16T19:33:56.887Z,0.10
2022-08-16T19:36:31.893Z,0.10
2022-08-16T19:39:04.643Z,0.10
2022-08-16T19:43:58.093Z,0.00
2022-08-16T19:46:24.524Z,0.00
2022-08-16T19:48:50.843Z,0.10
2022-08-16T19:51:17.188Z,0.00
2022-08-16T19:53:43.771Z,0.10
2022-08-16T19:56:10.116Z,0.00
2022-08-16T19:58:36.792Z,0.10
2022-08-16T20:01:03.288Z,0.00
2022-08-16T20:03:30.498Z,0.10
2022-08-16T20:05:56.940Z,0.20
2022-08-16T20:08:23.365Z,0.10
2022-08-16T20:10:50.481Z,0.10
2022-08-16T20:13:21.620Z,0.10
2022-08-16T20:15:48.674Z,0.00
2022-08-16T20:18:25.113Z,0.00
2022-08-16T20:20:52.348Z,0.03
2022-08-16T20:23:24.843Z,0.10
2022-08-16T20:25:52.418Z,0.00
2022-08-16T20:28:39.458Z,0.10
2022-08-16T20:31:05.201Z,0.00
2022-08-16T20:33:32.095Z,0.00
2022-08-16T20:35:58.420Z,0.00
2022-08-16T20:38:25.004Z,0.00
2022-08-16T20:40:51.478Z,0.00
2022-08-16T20:43:18.966Z,0.08
2022-08-16T20:45:45.890Z,0.20
2022-08-16T20:48:13.053Z,0.10
2022-08-16T20:50:39.685Z,0.10
2022-08-16T20:53:06.163Z,0.20
2022-08-16T20:55:34.125Z,0.30
2022-08-16T20:58:00.440Z,0.28
2022-08-16T21:00:28.911Z,0.20
2022-08-16T21:02:55.798Z,0.20
2022-08-16T21:05:24.585Z,0.30
2022-08-16T21:07:54.635Z,0.40
2022-08-16T21:10:22.804Z,0.13
2022-08-16T21:12:54.490Z,0.20
2022-08-16T21:17:47.286Z,0.10
2022-08-16T21:20:13.688Z,0.20
2022-08-16T21:22:40.265Z,0.22
2022-08-16T21:25:07.781Z,0.28
2022-08-16T21:27:34.881Z,0.08
2022-08-16T21:30:09.313Z,0.20
2022-08-16T21:32:37.867Z,0.20
2022-08-16T21:35:09.213Z,0.17
2022-08-16T21:37:35.822Z,0.20
2022-08-16T21:40:02.372Z,0.28
2022-08-16T21:42:31.911Z,0.20
2022-08-16T21:45:00.863Z,0.28
2022-08-16T21:47:27.170Z,0.43
2022-08-16T21:49:53.538Z,0.30
2022-08-16T21:52:26.234Z,0.40
2022-08-16T21:54:54.220Z,0.20
2022-08-16T21:57:23.009Z,0.20
2022-08-16T21:59:52.878Z,0.20
2022-08-16T22:02:20.854Z,0.20
2022-08-16T22:04:47.734Z,0.10
2022-08-16T22:07:15.505Z,0.10
2022-08-16T22:09:42.684Z,0.20
2022-08-16T22:12:09.524Z,0.10
2022-08-16T22:14:35.902Z,0.10
2022-08-16T22:17:02.408Z,0.10
2022-08-16T22:19:28.782Z,0.00
2022-08-16T22:21:55.615Z,0.10
2022-08-16T22:24:22.052Z,0.10
2022-08-16T22:26:48.372Z,0.10
2022-08-16T22:29:15.033Z,0.10
2022-08-16T22:31:42.010Z,0.10
2022-08-16T22:34:08.929Z,0.10
2022-08-16T22:36:35.781Z,0.10
2022-08-16T22:39:03.951Z,0.10
2022-08-16T22:41:34.228Z,0.10
2022-08-16T22:44:01.974Z,0.10
2022-08-16T22:46:28.540Z,0.10
2022-08-16T22:48:54.950Z,0.10
2022-08-16T22:51:22.504Z,0.10
2022-08-16T22:53:49.013Z,0.10
2022-08-16T22:56:17.417Z,0.17
2022-08-16T22:58:44.237Z,0.00
2022-08-16T23:01:12.132Z,0.10
2022-08-16T23:03:38.929Z,0.10
2022-08-16T23:06:05.825Z,0.20
2022-08-16T23:08:39.672Z,0.20
2022-08-16T23:11:12.110Z,0.20
2022-08-16T23:13:53.066Z,0.10
2022-08-16T23:18:48.560Z,0.20
2022-08-16T23:21:15.089Z,0.10
2022-08-16T23:23:41.426Z,0.10
2022-08-16T23:26:44.874Z,0.35
2022-08-16T23:28:54.810Z,0.50
2022-08-16T23:31:21.286Z,0.40
2022-08-16T23:33:47.690Z,0.43
2022-08-16T23:36:14.087Z,0.50
2022-08-16T23:38:40.498Z,0.35
2022-08-16T23:41:09.171Z,0.38
2022-08-16T23:43:41.900Z,0.22
2022-08-16T23:46:11.542Z,0.20
2022-08-16T23:49:56.621Z,0.30
2022-08-16T23:51:24.230Z,0.15
2022-08-16T23:53:50.914Z,0.10
2022-08-16T23:56:18.829Z,0.10
2022-08-16T23:58:46.840Z,0.20
